createdAt,value
2023-02-12T00:01:24.203Z,3.60
2023-02-12T00:03:51.499Z,3.60
2023-02-12T00:06:18.532Z,3.60
2023-02-12T00:08:48.546Z,3.60
2023-02-12T00:11:19.486Z,3.50
2023-02-12T00:13:46.561Z,3.50
2023-02-12T00:16:17.409Z,3.60
2023-02-12T00:18:44.681Z,3.60
2023-02-12T00:21:13.828Z,3.70
2023-02-12T00:23:41.540Z,3.70
2023-02-12T00:26:15.199Z,3.70
2023-02-12T00:28:43.238Z,3.70
2023-02-12T00:31:14.681Z,3.60
2023-02-12T00:33:42.258Z,3.60
2023-02-12T00:36:13.239Z,3.60
2023-02-12T00:38:40.099Z,3.60
2023-02-12T00:41:06.845Z,3.70
2023-02-12T00:43:33.889Z,3.60
2023-02-12T00:46:01.146Z,3.60
2023-02-12T00:48:27.947Z,3.60
2023-02-12T00:50:54.720Z,3.60
2023-02-12T00:53:21.536Z,3.60
2023-02-12T00:55:49.095Z,3.60
2023-02-12T00:58:18.865Z,3.60
2023-02-12T01:00:46.134Z,3.60
2023-02-12T01:03:15.284Z,3.60
2023-02-12T01:05:42.123Z,3.60
2023-02-12T01:08:11.951Z,3.60
2023-02-12T01:10:39.961Z,3.60
2023-02-12T01:13:07.944Z,3.60
2023-02-12T01:15:34.753Z,3.70
2023-02-12T01:18:01.657Z,3.70
2023-02-12T01:20:28.468Z,3.70
2023-02-12T01:22:55.229Z,3.70
2023-02-12T01:25:21.996Z,3.70
2023-02-12T01:27:48.922Z,3.70
2023-02-12T01:30:16.496Z,3.60
2023-02-12T01:32:44.318Z,3.60
2023-02-12T01:35:11.182Z,3.60
2023-02-12T01:37:38.623Z,3.60
2023-02-12T01:40:07.842Z,3.60
2023-02-12T01:42:34.895Z,3.60
2023-02-12T01:45:36.700Z,3.70
2023-02-12T01:48:03.662Z,3.60
2023-02-12T01:50:30.606Z,3.60
2023-02-12T01:52:58.854Z,3.60
2023-02-12T01:55:25.808Z,3.60
2023-02-12T01:57:52.595Z,3.60
2023-02-12T02:00:23.655Z,3.60
2023-02-12T02:02:58.673Z,3.60
2023-02-12T02:05:53.138Z,3.60
2023-02-12T02:08:20.075Z,3.70
2023-02-12T02:10:46.849Z,3.60
2023-02-12T02:13:32.730Z,3.60
2023-02-12T02:16:11.067Z,3.70
2023-02-12T02:18:49.487Z,3.70
2023-02-12T02:22:07.986Z,3.70
2023-02-12T02:25:10.613Z,3.60
2023-02-12T02:28:21.255Z,3.60
2023-02-12T02:31:32.279Z,3.60
2023-02-12T02:34:09.444Z,3.50
2023-02-12T02:37:09.053Z,3.50
2023-02-12T02:40:02.371Z,3.50
2023-02-12T02:42:48.837Z,3.50
2023-02-12T02:45:26.497Z,3.50
2023-02-12T02:48:13.870Z,3.50
2023-02-12T02:50:46.923Z,3.40
2023-02-12T02:53:17.718Z,3.50
2023-02-12T02:55:51.260Z,3.40
2023-02-12T02:58:25.590Z,3.40
2023-02-12T03:01:07.953Z,3.40
2023-02-12T03:04:02.687Z,3.40
2023-02-12T03:06:54.442Z,3.40
2023-02-12T03:09:36.767Z,3.40
2023-02-12T03:12:20.780Z,3.40
2023-02-12T03:15:10.887Z,3.40
2023-02-12T03:17:49.544Z,3.40
2023-02-12T03:20:26.644Z,3.40
2023-02-12T03:23:02.090Z,3.40
2023-02-12T03:26:01.265Z,3.50
2023-02-12T03:28:35.846Z,3.50
2023-02-12T03:31:45.846Z,3.40
2023-02-12T03:34:21.527Z,3.40
2023-02-12T03:37:12.877Z,3.40
2023-02-12T03:39:57.186Z,3.40
2023-02-12T03:42:54.795Z,3.50
2023-02-12T03:45:58.966Z,3.50
2023-02-12T03:48:49.575Z,3.50
2023-02-12T03:51:35.244Z,3.60
2023-02-12T03:54:03.559Z,3.60
2023-02-12T03:56:43.526Z,3.60
2023-02-12T03:59:10.881Z,3.60
2023-02-12T04:01:37.952Z,3.60
2023-02-12T04:04:08.109Z,3.60
2023-02-12T04:06:35.472Z,3.60
2023-02-12T04:09:09.974Z,3.50
2023-02-12T04:12:05.114Z,3.40
2023-02-12T04:15:15.544Z,3.30
2023-02-12T04:18:14.981Z,3.40
2023-02-12T04:21:06.406Z,3.40
2023-02-12T04:24:11.005Z,3.40
2023-02-12T04:27:00.121Z,3.40
2023-02-12T04:29:50.865Z,3.40
2023-02-12T04:32:53.049Z,3.40
2023-02-12T04:35:56.342Z,3.40
2023-02-12T04:38:35.193Z,3.40
2023-02-12T04:41:04.588Z,3.40
2023-02-12T04:43:38.279Z,3.50
2023-02-12T04:46:08.478Z,3.50
2023-02-12T04:48:53.792Z,3.50
2023-02-12T04:51:22.532Z,3.60
2023-02-12T04:53:49.770Z,3.70
2023-02-12T04:56:17.766Z,3.60
2023-02-12T04:58:44.659Z,3.60
2023-02-12T05:01:11.624Z,3.50
2023-02-12T05:03:38.565Z,3.50
2023-02-12T05:06:07.504Z,3.40
2023-02-12T05:08:34.383Z,3.40
2023-02-12T05:11:09.998Z,3.40
2023-02-12T05:13:38.233Z,3.40
2023-02-12T05:16:08.673Z,3.40
2023-02-12T05:18:36.689Z,3.40
2023-02-12T05:21:06.004Z,3.40
2023-02-12T05:23:36.038Z,3.50
2023-02-12T05:26:08.836Z,3.50
2023-02-12T05:28:35.714Z,3.60
2023-02-12T05:31:06.443Z,3.60
2023-02-12T05:33:33.410Z,3.60
2023-02-12T05:36:10.180Z,3.60
2023-02-12T05:38:37.324Z,3.50
2023-02-12T05:41:06.341Z,3.50
2023-02-12T05:43:33.327Z,3.50
2023-02-12T05:46:01.935Z,3.50
2023-02-12T05:48:30.418Z,3.50
2023-02-12T05:51:09.694Z,3.50
2023-02-12T05:53:38.347Z,3.50
2023-02-12T05:56:21.404Z,3.50
2023-02-12T05:58:54.682Z,3.50
2023-02-12T06:01:29.838Z,3.60
2023-02-12T06:03:58.850Z,3.60
2023-02-12T06:06:27.415Z,3.60
2023-02-12T06:08:56.421Z,3.60
2023-02-12T06:11:23.467Z,3.60
2023-02-12T06:13:51.208Z,3.60
2023-02-12T06:16:27.707Z,3.70
2023-02-12T06:18:56.909Z,3.60
2023-02-12T06:21:26.141Z,3.70
2023-02-12T06:23:53.555Z,3.60
2023-02-12T06:26:22.465Z,3.60
2023-02-12T06:28:51.092Z,3.60
2023-02-12T06:31:31.831Z,3.60
2023-02-12T06:34:02.867Z,3.60
2023-02-12T06:36:30.173Z,3.60
2023-02-12T06:38:56.978Z,3.60
2023-02-12T06:41:24.103Z,3.60
2023-02-12T06:43:51.023Z,3.50
2023-02-12T06:46:18.100Z,3.60
2023-02-12T06:48:44.919Z,3.60
2023-02-12T06:51:18.729Z,3.60
2023-02-12T06:53:45.969Z,3.60
2023-02-12T06:56:14.085Z,3.60
2023-02-12T06:58:45.367Z,3.50
2023-02-12T07:01:18.717Z,3.50
2023-02-12T07:04:02.872Z,3.50
2023-02-12T07:06:31.915Z,3.50
2023-02-12T07:08:58.840Z,3.60
2023-02-12T07:11:35.473Z,3.60
2023-02-12T07:14:03.995Z,3.60
2023-02-12T07:16:30.813Z,3.60
2023-02-12T07:18:57.650Z,3.60
2023-02-12T07:21:24.423Z,3.60
2023-02-12T07:23:52.987Z,3.60
2023-02-12T07:26:21.359Z,3.60
2023-02-12T07:28:49.731Z,3.60
2023-02-12T07:31:20.616Z,3.60
2023-02-12T07:33:48.838Z,3.70
2023-02-12T07:36:20.297Z,3.60
2023-02-12T07:38:47.986Z,3.70
2023-02-12T07:41:30.963Z,3.60
2023-02-12T07:44:06.732Z,3.60
2023-02-12T07:46:47.826Z,3.60
2023-02-12T07:49:22.587Z,3.70
2023-02-12T07:51:50.568Z,3.70
2023-02-12T07:54:17.680Z,3.80
2023-02-12T07:56:47.299Z,3.80
2023-02-12T07:59:17.976Z,3.90
2023-02-12T08:01:51.260Z,4.00
2023-02-12T08:04:21.708Z,4.00
2023-02-12T08:06:51.509Z,4.10
2023-02-12T08:09:26.581Z,4.10
2023-02-12T08:11:55.466Z,4.10
2023-02-12T08:14:23.005Z,4.10
2023-02-12T08:16:50.940Z,4.10
2023-02-12T08:19:24.040Z,4.00
2023-02-12T08:21:54.375Z,4.10
2023-02-12T08:24:24.998Z,4.20
2023-02-12T08:26:52.692Z,4.30
2023-02-12T08:29:24.374Z,4.30
2023-02-12T08:31:57.949Z,4.30
2023-02-12T08:34:28.720Z,4.30
2023-02-12T08:36:59.012Z,4.40
2023-02-12T08:39:28.976Z,4.30
2023-02-12T08:41:57.837Z,4.40
2023-02-12T08:44:27.382Z,4.50
2023-02-12T08:46:56.307Z,4.60
2023-02-12T08:49:28.406Z,4.60
2023-02-12T08:51:57.491Z,4.60
2023-02-12T08:54:28.966Z,4.70
2023-02-12T08:56:58.428Z,4.70
2023-02-12T08:59:25.564Z,4.70
2023-02-12T09:01:55.795Z,4.80
2023-02-12T09:04:26.384Z,4.90
2023-02-12T09:06:54.691Z,4.90
2023-02-12T09:09:24.624Z,4.80
2023-02-12T09:11:51.516Z,4.90
2023-02-12T09:14:24.846Z,5.00
2023-02-12T09:16:53.412Z,5.10
2023-02-12T09:19:21.811Z,5.20
2023-02-12T09:21:57.229Z,5.20
2023-02-12T09:24:28.226Z,5.20
2023-02-12T09:26:56.549Z,5.30
2023-02-12T09:29:23.706Z,5.30
2023-02-12T09:31:50.584Z,5.40
2023-02-12T09:34:17.541Z,5.40
2023-02-12T09:36:44.329Z,5.30
2023-02-12T09:39:11.302Z,5.40
2023-02-12T09:42:13.921Z,5.40
2023-02-12T09:44:50.762Z,5.50
2023-02-12T09:47:47.045Z,5.40
2023-02-12T09:50:49.227Z,5.50
2023-02-12T09:53:28.207Z,5.60
2023-02-12T09:55:56.567Z,5.60
2023-02-12T09:58:47.027Z,5.60
2023-02-12T10:01:18.846Z,5.60
2023-02-12T10:03:51.516Z,5.60
2023-02-12T10:06:25.766Z,5.70
2023-02-12T10:09:18.555Z,5.70
2023-02-12T10:11:49.612Z,5.80
2023-02-12T10:14:46.502Z,5.90
2023-02-12T10:18:06.886Z,6.00
2023-02-12T10:21:12.107Z,6.00
2023-02-12T10:23:48.437Z,6.10
2023-02-12T10:26:26.142Z,6.20
2023-02-12T10:28:55.076Z,6.20
2023-02-12T10:31:37.807Z,6.20
2023-02-12T10:34:22.174Z,6.30
2023-02-12T10:36:54.815Z,6.40
2023-02-12T10:39:36.743Z,6.50
2023-02-12T10:42:23.551Z,6.50
2023-02-12T10:44:51.918Z,6.40
2023-02-12T10:47:22.243Z,6.40
2023-02-12T10:50:13.381Z,6.50
2023-02-12T10:52:50.106Z,6.50
2023-02-12T10:55:29.285Z,6.40
2023-02-12T10:58:00.170Z,6.50
2023-02-12T11:00:37.055Z,6.40
2023-02-12T11:03:14.952Z,6.50
2023-02-12T11:05:44.655Z,6.50
2023-02-12T11:08:40.292Z,6.50
2023-02-12T11:11:30.603Z,6.60
2023-02-12T11:14:17.430Z,6.70
2023-02-12T11:16:56.593Z,6.60
2023-02-12T11:19:30.958Z,6.60
2023-02-12T11:22:19.341Z,6.60
2023-02-12T11:24:48.298Z,6.70
2023-02-12T11:27:28.932Z,6.80
2023-02-12T11:30:19.940Z,6.90
2023-02-12T11:32:50.012Z,7.00
2023-02-12T11:35:35.912Z,7.20
2023-02-12T11:38:04.087Z,7.10
2023-02-12T11:40:34.403Z,7.10
2023-02-12T11:43:07.605Z,7.00
2023-02-12T11:45:45.134Z,7.00
2023-02-12T11:48:23.448Z,7.10
2023-02-12T11:50:55.343Z,7.20
2023-02-12T11:53:52.326Z,7.30
2023-02-12T11:56:21.190Z,7.30
2023-02-12T11:58:51.167Z,7.40
2023-02-12T12:01:31.081Z,7.30
2023-02-12T12:04:18.110Z,7.30
2023-02-12T12:06:51.627Z,7.40
2023-02-12T12:09:56.640Z,7.50
2023-02-12T12:12:43.724Z,7.60
2023-02-12T12:15:43.544Z,7.80
2023-02-12T12:18:56.340Z,8.00
2023-02-12T12:21:43.996Z,8.10
2023-02-12T12:24:40.004Z,8.30
2023-02-12T12:27:57.224Z,8.50
2023-02-12T12:30:43.963Z,8.70
2023-02-12T12:33:36.054Z,8.90
2023-02-12T12:36:14.501Z,9.00
2023-02-12T12:39:18.830Z,9.10
2023-02-12T12:41:53.761Z,9.10
2023-02-12T12:44:47.927Z,9.10
2023-02-12T12:47:59.684Z,9.10
2023-02-12T12:51:22.495Z,9.00
2023-02-12T12:53:59.388Z,9.00
2023-02-12T12:56:38.307Z,8.80
2023-02-12T12:59:48.617Z,8.70
2023-02-12T13:02:45.712Z,8.60
2023-02-12T13:05:51.569Z,8.70
2023-02-12T13:08:46.816Z,8.70
2023-02-12T13:11:29.953Z,8.60
2023-02-12T13:14:37.692Z,8.70
2023-02-12T13:17:15.569Z,8.60
2023-02-12T13:20:04.650Z,8.70
2023-02-12T13:23:33.713Z,8.70
2023-02-12T13:26:24.278Z,8.70
2023-02-12T13:29:02.462Z,8.80
2023-02-12T13:31:38.853Z,8.70
2023-02-12T13:34:13.983Z,8.80
2023-02-12T13:36:43.031Z,8.80
2023-02-12T13:39:12.542Z,8.80
2023-02-12T13:41:45.856Z,8.70
2023-02-12T13:44:46.704Z,8.80
2023-02-12T13:47:40.776Z,8.90
2023-02-12T13:51:04.608Z,8.80
2023-02-12T13:53:54.899Z,8.90
2023-02-12T13:56:46.164Z,8.70
2023-02-12T13:59:32.336Z,8.60
2023-02-12T14:02:01.216Z,8.60
2023-02-12T14:04:38.931Z,8.60
2023-02-12T14:07:12.964Z,8.80
2023-02-12T14:09:46.172Z,8.80
2023-02-12T14:12:25.927Z,8.80
2023-02-12T14:15:08.798Z,8.80
2023-02-12T14:17:36.733Z,8.80
2023-02-12T14:20:34.612Z,8.80
2023-02-12T14:23:27.653Z,8.70
2023-02-12T14:26:24.555Z,8.60
2023-02-12T14:29:06.488Z,8.60
2023-02-12T14:31:38.890Z,8.50
2023-02-12T14:34:06.172Z,8.50
2023-02-12T14:36:33.277Z,8.40
2023-02-12T14:39:08.579Z,8.50
2023-02-12T14:41:41.765Z,8.50
2023-02-12T14:44:18.033Z,8.50
2023-02-12T14:46:58.808Z,8.50
2023-02-12T14:49:33.683Z,8.50
2023-02-12T14:52:06.604Z,8.60
2023-02-12T14:54:45.538Z,8.50
2023-02-12T14:57:36.084Z,8.50
2023-02-12T15:00:19.642Z,8.40
2023-02-12T15:02:56.233Z,8.40
2023-02-12T15:05:47.520Z,8.40
2023-02-12T15:08:31.773Z,8.30
2023-02-12T15:11:45.994Z,8.30
2023-02-12T15:14:24.872Z,8.30
2023-02-12T15:17:02.722Z,8.20
2023-02-12T15:20:06.639Z,8.20
2023-02-12T15:22:43.097Z,8.20
2023-02-12T15:25:32.911Z,8.10
2023-02-12T15:28:07.460Z,8.10
2023-02-12T15:30:38.272Z,8.10
2023-02-12T15:33:07.417Z,8.20
2023-02-12T15:35:38.425Z,8.20
2023-02-12T15:38:08.860Z,8.20
2023-02-12T15:40:36.052Z,8.20
2023-02-12T15:43:06.955Z,8.10
2023-02-12T15:45:36.343Z,8.10
2023-02-12T15:48:18.512Z,8.10
2023-02-12T15:51:22.725Z,8.10
2023-02-12T15:53:50.084Z,8.10
2023-02-12T15:56:22.486Z,8.00
2023-02-12T15:58:57.219Z,8.00
2023-02-12T16:01:34.337Z,8.00
2023-02-12T16:04:08.902Z,7.90
2023-02-12T16:06:37.197Z,8.00
2023-02-12T16:09:16.436Z,7.90
2023-02-12T16:11:45.933Z,7.90
2023-02-12T16:14:40.770Z,7.90
2023-02-12T16:17:38.147Z,7.90
2023-02-12T16:20:27.112Z,7.90
2023-02-12T16:22:55.324Z,7.90
2023-02-12T16:25:33.414Z,7.80
2023-02-12T16:28:17.810Z,7.70
2023-02-12T16:30:48.206Z,7.70
2023-02-12T16:33:48.540Z,7.70
2023-02-12T16:36:25.225Z,7.70
2023-02-12T16:39:02.547Z,7.60
2023-02-12T16:41:32.346Z,7.60
2023-02-12T16:44:06.267Z,7.60
2023-02-12T16:46:45.119Z,7.50
2023-02-12T16:49:18.163Z,7.50
2023-02-12T16:51:45.981Z,7.40
2023-02-12T16:54:35.116Z,7.40
2023-02-12T16:57:02.140Z,7.30
2023-02-12T16:59:29.574Z,7.20
2023-02-12T17:02:14.515Z,7.20
2023-02-12T17:04:41.757Z,7.20
2023-02-12T17:07:28.137Z,7.10
2023-02-12T17:09:55.034Z,7.10
2023-02-12T17:12:21.847Z,7.00
2023-02-12T17:14:48.926Z,6.90
2023-02-12T17:17:16.478Z,6.90
2023-02-12T17:19:43.290Z,6.80
2023-02-12T17:22:23.993Z,6.80
2023-02-12T17:24:53.063Z,6.80
2023-02-12T17:27:20.369Z,6.70
2023-02-12T17:29:47.407Z,6.60
2023-02-12T17:32:14.459Z,6.60
2023-02-12T17:34:48.621Z,6.60
2023-02-12T17:37:17.998Z,6.60
2023-02-12T17:39:44.954Z,6.60
2023-02-12T17:42:12.138Z,6.60
2023-02-12T17:44:40.063Z,6.60
2023-02-12T17:47:07.144Z,6.50
2023-02-12T17:49:35.441Z,6.50
2023-02-12T17:52:04.150Z,6.50
2023-02-12T17:54:32.432Z,6.50
2023-02-12T17:56:59.220Z,6.40
2023-02-12T17:59:26.084Z,6.40
2023-02-12T18:01:52.908Z,6.40
2023-02-12T18:04:19.821Z,6.30
2023-02-12T18:06:46.635Z,6.30
2023-02-12T18:09:13.574Z,6.30
2023-02-12T18:11:42.142Z,6.30
2023-02-12T18:14:11.720Z,6.30
2023-02-12T18:16:38.676Z,6.30
2023-02-12T18:19:05.799Z,6.20
2023-02-12T18:21:34.885Z,6.20
2023-02-12T18:24:02.139Z,6.20
2023-02-12T18:26:29.494Z,6.10
2023-02-12T18:28:58.531Z,6.10
2023-02-12T18:31:26.777Z,6.00
2023-02-12T18:33:54.310Z,6.00
2023-02-12T18:36:22.490Z,6.00
2023-02-12T18:38:51.727Z,5.90
2023-02-12T18:41:27.507Z,5.90
2023-02-12T18:43:55.145Z,5.90
2023-02-12T18:46:26.602Z,5.80
2023-02-12T18:48:55.631Z,5.80
2023-02-12T18:51:26.976Z,5.80
2023-02-12T18:54:02.881Z,5.80
2023-02-12T18:56:33.760Z,5.70
2023-02-12T18:59:04.916Z,5.70
2023-02-12T19:01:34.563Z,5.70
2023-02-12T19:04:04.870Z,5.70
2023-02-12T19:06:34.441Z,5.70
2023-02-12T19:09:04.832Z,5.60
2023-02-12T19:11:32.341Z,5.60
2023-02-12T19:14:01.182Z,5.60
2023-02-12T19:16:30.084Z,5.70
2023-02-12T19:19:00.867Z,5.60
2023-02-12T19:21:27.663Z,5.60
2023-02-12T19:23:56.873Z,5.60
2023-02-12T19:26:25.377Z,5.60
2023-02-12T19:28:54.444Z,5.50
2023-02-12T19:31:30.458Z,5.50
2023-02-12T19:34:02.502Z,5.50
2023-02-12T19:36:33.448Z,5.50
2023-02-12T19:39:03.369Z,5.50
2023-02-12T19:41:31.280Z,5.50
2023-02-12T19:44:02.954Z,5.50
2023-02-12T19:46:31.415Z,5.40
2023-02-12T19:49:01.868Z,5.30
2023-02-12T19:51:30.361Z,5.30
2023-02-12T19:54:05.888Z,5.30
2023-02-12T19:56:35.376Z,5.40
2023-02-12T19:59:03.139Z,5.40
2023-02-12T20:01:31.699Z,5.40
2023-02-12T20:03:58.850Z,5.30
2023-02-12T20:06:37.103Z,5.30
2023-02-12T20:09:06.951Z,5.30
2023-02-12T20:11:38.451Z,5.30
2023-02-12T20:14:10.155Z,5.40
2023-02-12T20:16:39.224Z,5.30
2023-02-12T20:19:14.096Z,5.30
2023-02-12T20:21:42.769Z,5.30
2023-02-12T20:24:10.921Z,5.20
2023-02-12T20:26:38.834Z,5.30
2023-02-12T20:29:06.613Z,5.20
2023-02-12T20:31:36.369Z,5.20
2023-02-12T20:34:12.164Z,5.20
2023-02-12T20:36:43.511Z,5.10
2023-02-12T20:39:13.490Z,5.10
2023-02-12T20:41:41.218Z,5.20
2023-02-12T20:44:15.277Z,5.10
2023-02-12T20:46:52.479Z,5.10
2023-02-12T20:49:22.833Z,5.10
2023-02-12T20:51:50.676Z,5.10
2023-02-12T20:54:17.460Z,5.10
2023-02-12T20:56:44.859Z,5.00
2023-02-12T20:59:13.782Z,5.00
2023-02-12T21:01:43.140Z,5.00
2023-02-12T21:04:14.665Z,5.10
2023-02-12T21:06:42.073Z,5.10
2023-02-12T21:09:13.113Z,5.10
2023-02-12T21:11:42.709Z,5.10
2023-02-12T21:14:21.857Z,5.10
2023-02-12T21:16:51.824Z,5.10
2023-02-12T21:19:18.919Z,5.10
2023-02-12T21:21:48.978Z,5.00
2023-02-12T21:24:22.755Z,5.00
2023-02-12T21:26:52.122Z,5.00
2023-02-12T21:29:19.825Z,5.00
2023-02-12T21:31:50.836Z,5.00
2023-02-12T21:34:22.134Z,5.00
2023-02-12T21:36:50.924Z,5.00
2023-02-12T21:39:26.526Z,5.00
2023-02-12T21:42:00.915Z,5.00
2023-02-12T21:44:29.236Z,4.90
2023-02-12T21:46:57.240Z,4.90
2023-02-12T21:49:25.200Z,4.90
2023-02-12T21:52:04.683Z,4.90
2023-02-12T21:54:33.369Z,4.90
2023-02-12T21:57:02.892Z,4.90
2023-02-12T21:59:32.621Z,4.90
2023-02-12T22:02:02.649Z,4.90
2023-02-12T22:04:30.698Z,4.90
2023-02-12T22:07:03.466Z,4.90
2023-02-12T22:09:31.501Z,4.90
2023-02-12T22:11:58.505Z,4.90
2023-02-12T22:14:25.533Z,4.90
2023-02-12T22:16:52.752Z,4.90
2023-02-12T22:19:21.870Z,4.90
2023-02-12T22:21:54.096Z,4.80
2023-02-12T22:24:22.182Z,4.80
2023-02-12T22:26:49.245Z,4.80
2023-02-12T22:29:17.881Z,4.80
2023-02-12T22:31:46.649Z,4.80
2023-02-12T22:34:17.849Z,4.80
2023-02-12T22:36:46.625Z,4.90
2023-02-12T22:39:14.644Z,4.80
2023-02-12T22:41:42.415Z,4.80
2023-02-12T22:44:12.443Z,4.80
2023-02-12T22:46:40.336Z,4.80
2023-02-12T22:49:07.112Z,4.70
2023-02-12T22:51:35.930Z,4.60
2023-02-12T22:54:03.787Z,4.70
2023-02-12T22:56:30.595Z,4.70
2023-02-12T22:59:01.771Z,4.70
2023-02-12T23:01:30.157Z,4.70
2023-02-12T23:03:57.385Z,4.70
2023-02-12T23:06:31.091Z,4.70
2023-02-12T23:09:04.428Z,4.70
2023-02-12T23:11:33.135Z,4.70
2023-02-12T23:14:00.489Z,4.70
2023-02-12T23:16:27.404Z,4.70
2023-02-12T23:18:59.266Z,4.70
2023-02-12T23:21:28.678Z,4.70
2023-02-12T23:23:56.132Z,4.70
2023-02-12T23:26:23.551Z,4.70
2023-02-12T23:28:50.681Z,4.70
2023-02-12T23:31:17.814Z,4.70
2023-02-12T23:33:44.720Z,4.70
2023-02-12T23:36:11.931Z,4.70
2023-02-12T23:38:38.808Z,4.70
2023-02-12T23:41:05.821Z,4.70
2023-02-12T23:43:35.204Z,4.70
2023-02-12T23:46:03.216Z,4.60
2023-02-12T23:48:30.437Z,4.50
2023-02-12T23:50:57.940Z,4.50
2023-02-12T23:53:25.014Z,4.50
2023-02-12T23:55:52.026Z,4.40
2023-02-12T23:58:19.070Z,4.40
